createdAt,value
2022-08-23T13:19:31.014Z,100582.05
2022-08-23T13:22:20.622Z,100577.07
2022-08-23T13:28:12.398Z,100603.77
2022-08-23T13:31:11.080Z,100603.61
2022-08-23T13:33:41.605Z,100590.27
2022-08-23T13:36:22.207Z,100591.92
2022-08-23T13:38:53.072Z,100597.34
2022-08-23T13:41:38.380Z,100598.74
2022-08-23T13:44:16.987Z,100596.80
2022-08-23T13:51:40.472Z,100560.84
2022-08-23T13:54:15.674Z,100573.42
2022-08-23T13:56:53.483Z,100591.80
2022-08-23T13:59:41.588Z,100585.09
2022-08-23T14:02:15.517Z,100589.92
2022-08-23T14:04:46.643Z,100595.77
2022-08-23T14:07:17.856Z,100596.54
2022-08-23T14:10:11.808Z,100605.56
2022-08-23T14:12:45.177Z,100588.22
2022-08-23T14:15:16.984Z,100588.34
2022-08-23T14:17:54.124Z,100601.45
2022-08-23T14:20:46.247Z,100608.89
2022-08-23T14:23:17.266Z,100629.86
2022-08-23T14:25:53.636Z,100646.20
2022-08-23T14:28:30.736Z,100644.43
2022-08-23T14:31:12.616Z,100654.24
2022-08-23T14:33:43.736Z,100675.61
2022-08-23T14:36:30.052Z,100709.94
2022-08-23T14:39:04.029Z,100734.38
2022-08-23T14:42:21.424Z,100737.83
2022-08-23T14:45:11.253Z,100745.06
2022-08-23T14:47:56.245Z,100759.85
2022-08-23T14:50:28.794Z,100761.95
2022-08-23T14:52:59.707Z,100763.90
2022-08-23T14:55:30.237Z,100766.31
2022-08-23T14:58:01.490Z,100770.70
2022-08-23T15:00:35.822Z,100744.36
2022-08-23T15:03:11.361Z,100728.89
2022-08-23T15:05:42.005Z,100751.46
2022-08-23T15:08:14.128Z,100766.72
2022-08-23T15:14:11.184Z,100766.65
2022-08-23T15:17:42.019Z,100757.35
2022-08-23T15:20:12.788Z,100743.11
2022-08-23T15:22:55.437Z,100727.20
2022-08-23T15:25:53.994Z,100709.23
2022-08-23T15:28:44.418Z,100712.09
2022-08-23T15:31:17.805Z,100722.58
2022-08-23T15:34:05.000Z,100724.02
2022-08-23T15:37:00.266Z,100713.23
2022-08-23T15:39:59.362Z,100708.88
2022-08-23T15:42:51.780Z,100709.31
2022-08-23T15:45:27.787Z,100704.44
2022-08-23T15:48:12.907Z,100701.91
2022-08-23T15:50:55.143Z,100692.05
2022-08-23T15:54:23.007Z,100685.40
2022-08-23T15:56:57.246Z,100683.86
2022-08-23T15:59:37.147Z,100679.48
2022-08-23T16:03:20.415Z,100682.43
2022-08-23T16:06:06.471Z,100684.12
2022-08-23T16:08:39.410Z,100686.95
2022-08-23T16:11:13.253Z,100685.44
2022-08-23T16:13:51.591Z,100686.66
2022-08-23T16:17:00.042Z,100692.55
2022-08-23T16:27:58.705Z,100682.97
2022-08-23T16:31:00.006Z,100685.63
2022-08-23T16:33:31.163Z,100673.06
2022-08-23T16:44:25.297Z,100684.28
2022-08-23T16:46:56.255Z,100691.96
2022-08-23T16:49:26.906Z,100699.83
2022-08-23T16:51:57.619Z,100710.36
2022-08-23T16:54:29.270Z,100717.83
2022-08-23T16:56:59.905Z,100726.42
2022-08-23T16:59:30.563Z,100717.63
2022-08-23T17:02:04.515Z,100713.56
2022-08-23T17:04:37.580Z,100705.92
2022-08-23T17:07:11.119Z,100708.04
2022-08-23T17:09:44.903Z,100704.67
2022-08-23T17:13:12.912Z,100701.48
2022-08-23T17:15:33.222Z,100697.92
2022-08-23T17:18:05.216Z,100707.10
2022-08-23T17:21:06.572Z,100710.60
2022-08-23T17:23:40.665Z,100713.89
2022-08-23T17:26:16.882Z,100726.02
2022-08-23T17:28:51.366Z,100726.79
2022-08-23T17:31:22.705Z,100731.55
2022-08-23T17:33:53.714Z,100731.88
2022-08-23T17:36:51.479Z,100733.27
2022-08-23T17:39:44.240Z,100736.23
2022-08-23T17:42:15.236Z,100731.70
2022-08-23T17:44:46.852Z,100726.59
2022-08-23T17:47:19.960Z,100723.39
2022-08-23T17:49:55.755Z,100727.97
2022-08-23T17:52:31.362Z,100718.16
2022-08-23T17:55:03.538Z,100727.30
2022-08-23T17:57:38.279Z,100730.59
2022-08-23T18:00:33.230Z,100722.71
2022-08-23T18:03:59.815Z,100726.20
2022-08-23T18:06:31.384Z,100726.94
2022-08-23T18:09:04.038Z,100719.79
2022-08-23T18:15:56.227Z,100733.34
2022-08-23T18:18:40.165Z,100736.83
2022-08-23T18:21:14.008Z,100729.06
2022-08-23T18:23:44.713Z,100728.88
2022-08-23T18:26:29.667Z,100734.66
2022-08-23T18:29:01.967Z,100736.29
2022-08-23T18:31:33.826Z,100742.30
2022-08-23T18:34:04.425Z,100739.52
2022-08-23T18:36:35.497Z,100741.82
2022-08-23T18:39:07.456Z,100738.77
2022-08-23T18:41:38.207Z,100739.44
2022-08-23T18:44:09.498Z,100748.09
2022-08-23T18:46:53.986Z,100743.57
2022-08-23T18:49:25.155Z,100741.02
2022-08-23T18:51:56.880Z,100739.77
2022-08-23T18:54:33.063Z,100740.48
2022-08-23T18:57:04.545Z,100738.03
2022-08-23T18:59:35.752Z,100739.78
2022-08-23T19:02:16.214Z,100736.70
2022-08-23T19:05:14.967Z,100740.48
2022-08-23T19:08:02.252Z,100746.59
2022-08-23T19:11:06.817Z,100746.95
2022-08-23T19:13:53.747Z,100738.94
2022-08-23T19:16:52.305Z,100739.97
2022-08-23T19:19:49.330Z,100743.36
2022-08-23T19:22:35.475Z,100740.89
2022-08-23T19:25:20.488Z,100740.72
2022-08-23T19:28:34.319Z,100741.48
2022-08-23T19:32:08.456Z,100740.34
2022-08-23T19:35:32.615Z,100742.96
2022-08-23T19:38:39.745Z,100745.14
2022-08-23T19:41:22.080Z,100746.75
2022-08-23T19:43:55.833Z,100748.98
2022-08-23T19:46:31.471Z,100751.67
2022-08-23T19:49:06.949Z,100753.56
2022-08-23T19:51:41.917Z,100757.84
2022-08-23T19:54:28.084Z,100757.71
2022-08-23T19:57:10.460Z,100758.02
2022-08-23T19:59:57.558Z,100754.34
2022-08-23T20:03:20.172Z,100753.61
2022-08-23T20:06:10.403Z,100745.27
2022-08-23T20:08:57.575Z,100739.36
2022-08-23T20:11:49.003Z,100743.42
2022-08-23T20:14:23.316Z,100741.56
2022-08-23T20:17:04.033Z,100741.36
2022-08-23T20:19:39.425Z,100742.38
2022-08-23T20:22:35.720Z,100741.67
2022-08-23T20:25:33.479Z,100751.48
2022-08-23T20:28:08.885Z,100787.11
2022-08-23T20:30:48.427Z,100813.82
2022-08-23T20:37:01.041Z,100836.82
2022-08-23T20:39:52.706Z,100840.51
2022-08-23T20:42:33.008Z,100862.36
2022-08-23T20:45:26.257Z,100870.25
2022-08-23T20:48:14.969Z,100891.08
2022-08-23T20:51:11.444Z,100892.34
2022-08-23T20:54:20.920Z,100895.27
2022-08-23T20:57:19.156Z,100895.39
2022-08-23T21:00:17.785Z,100889.34
2022-08-23T21:03:14.034Z,100876.20
2022-08-23T21:06:08.761Z,100856.52
2022-08-23T21:15:48.489Z,100880.29
2022-08-23T21:18:23.337Z,100870.95
2022-08-23T21:21:20.992Z,100866.55
2022-08-23T21:24:06.855Z,100846.52
2022-08-23T21:27:08.839Z,100825.00
2022-08-23T21:29:56.816Z,100822.91
2022-08-23T21:32:28.704Z,100823.30
2022-08-23T21:35:26.077Z,100822.52
2022-08-23T21:38:30.475Z,100815.96
2022-08-23T21:41:48.967Z,100804.58
2022-08-23T21:44:25.197Z,100800.45
2022-08-23T21:46:56.685Z,100790.39
2022-08-23T21:49:35.776Z,100793.70
2022-08-23T21:52:11.005Z,100797.20
2022-08-23T21:58:50.469Z,100792.56
2022-08-23T22:01:23.015Z,100793.09
2022-08-23T22:04:05.005Z,100789.01
2022-08-23T22:06:48.398Z,100784.75
2022-08-23T22:09:27.871Z,100781.02
2022-08-23T22:12:24.504Z,100776.71
2022-08-23T22:15:08.637Z,100776.73
2022-08-23T22:18:03.747Z,100779.79
2022-08-23T22:20:35.788Z,100780.73
2022-08-23T22:23:09.403Z,100782.44
2022-08-23T22:25:40.597Z,100781.48
2022-08-23T22:28:11.397Z,100782.80
2022-08-23T22:30:44.574Z,100784.52
2022-08-23T22:33:15.264Z,100794.84
2022-08-23T22:36:02.918Z,100794.16
2022-08-23T22:38:34.251Z,100794.75
2022-08-23T22:41:05.319Z,100792.33
2022-08-23T22:43:36.536Z,100797.94
2022-08-23T22:46:08.550Z,100800.00
2022-08-23T22:48:45.197Z,100801.70
2022-08-23T22:51:23.548Z,100802.23
2022-08-23T22:54:02.776Z,100801.21
2022-08-23T22:56:40.054Z,100805.20
2022-08-23T22:59:13.035Z,100806.96
2022-08-23T23:01:50.429Z,100810.63
2022-08-23T23:04:24.175Z,100807.46
2022-08-23T23:06:56.686Z,100805.40
2022-08-23T23:09:28.936Z,100805.45
2022-08-23T23:12:00.449Z,100802.96
2022-08-23T23:14:31.976Z,100802.59
2022-08-23T23:17:22.572Z,100800.79
2022-08-23T23:20:15.477Z,100801.05
2022-08-23T23:23:16.871Z,100798.56
2022-08-23T23:25:52.099Z,100804.19
2022-08-23T23:28:26.657Z,100804.23
2022-08-23T23:31:11.878Z,100801.31
2022-08-23T23:33:51.857Z,100798.10
2022-08-23T23:36:22.846Z,100796.53
2022-08-23T23:38:53.663Z,100795.13
2022-08-23T23:42:27.855Z,100793.21
2022-08-23T23:44:59.852Z,100793.48
2022-08-23T23:47:42.925Z,100791.41
2022-08-23T23:50:42.444Z,100790.27
2022-08-23T23:53:37.666Z,100796.41
2022-08-23T23:56:17.292Z,100798.19
2022-08-23T23:58:52.712Z,100791.35
